sensor_id;sensor_type;location;lat;lon;timestamp;P1;durP1;ratioP1;P2;durP2;ratioP2
39102;SDS011;24847;48.218;16.414;2023-04-28T00:02:59;4.97;;;2.67;;
39102;SDS011;24847;48.218;16.414;2023-04-28T00:08:02;5.05;;;3.42;;
39102;SDS011;24847;48.218;16.414;2023-04-28T00:13:09;4.70;;;2.90;;
39102;SDS011;24847;48.218;16.414;2023-04-28T00:18:11;5.25;;;2.92;;
39102;SDS011;24847;48.218;16.414;2023-04-28T00:23:14;3.28;;;2.65;;
39102;SDS011;24847;48.218;16.414;2023-04-28T00:28:17;3.53;;;2.95;;
39102;SDS011;24847;48.218;16.414;2023-04-28T00:33:20;4.03;;;2.88;;
39102;SDS011;24847;48.218;16.414;2023-04-28T00:38:22;4.72;;;2.75;;
39102;SDS011;24847;48.218;16.414;2023-04-28T00:43:26;4.55;;;2.90;;
39102;SDS011;24847;48.218;16.414;2023-04-28T00:48:29;4.75;;;2.60;;
39102;SDS011;24847;48.218;16.414;2023-04-28T00:53:31;4.53;;;2.55;;
39102;SDS011;24847;48.218;16.414;2023-04-28T00:58:35;4.85;;;2.50;;
39102;SDS011;24847;48.218;16.414;2023-04-28T01:03:39;4.60;;;2.80;;
39102;SDS011;24847;48.218;16.414;2023-04-28T01:08:42;3.10;;;2.60;;
39102;SDS011;24847;48.218;16.414;2023-04-28T01:13:50;4.10;;;2.60;;
39102;SDS011;24847;48.218;16.414;2023-04-28T01:18:52;2.70;;;2.30;;
39102;SDS011;24847;48.218;16.414;2023-04-28T01:23:56;2.60;;;2.33;;
39102;SDS011;24847;48.218;16.414;2023-04-28T01:29:01;5.03;;;2.85;;
39102;SDS011;24847;48.218;16.414;2023-04-28T01:34:05;5.75;;;3.03;;
39102;SDS011;24847;48.218;16.414;2023-04-28T01:39:09;4.43;;;3.67;;
39102;SDS011;24847;48.218;16.414;2023-04-28T01:44:11;3.47;;;3.17;;
39102;SDS011;24847;48.218;16.414;2023-04-28T01:49:14;3.75;;;2.70;;
39102;SDS011;24847;48.218;16.414;2023-04-28T01:54:18;3.38;;;3.03;;
39102;SDS011;24847;48.218;16.414;2023-04-28T01:59:20;3.78;;;3.30;;
39102;SDS011;24847;48.218;16.414;2023-04-28T02:04:23;3.35;;;3.03;;
39102;SDS011;24847;48.218;16.414;2023-04-28T02:09:26;3.92;;;3.00;;
39102;SDS011;24847;48.218;16.414;2023-04-28T02:14:29;3.28;;;2.95;;
39102;SDS011;24847;48.218;16.414;2023-04-28T02:19:31;4.47;;;3.03;;
39102;SDS011;24847;48.218;16.414;2023-04-28T02:24:35;3.50;;;3.05;;
39102;SDS011;24847;48.218;16.414;2023-04-28T02:29:37;2.70;;;2.45;;
39102;SDS011;24847;48.218;16.414;2023-04-28T02:34:40;2.97;;;2.45;;
39102;SDS011;24847;48.218;16.414;2023-04-28T02:39:43;3.25;;;2.83;;
39102;SDS011;24847;48.218;16.414;2023-04-28T02:44:46;3.45;;;2.95;;
39102;SDS011;24847;48.218;16.414;2023-04-28T02:49:48;5.60;;;2.92;;
39102;SDS011;24847;48.218;16.414;2023-04-28T02:54:52;4.28;;;2.97;;
39102;SDS011;24847;48.218;16.414;2023-04-28T02:59:56;3.90;;;2.80;;
39102;SDS011;24847;48.218;16.414;2023-04-28T03:04:58;6.70;;;3.40;;
39102;SDS011;24847;48.218;16.414;2023-04-28T03:10:02;3.30;;;2.92;;
39102;SDS011;24847;48.218;16.414;2023-04-28T03:15:05;3.42;;;2.72;;
39102;SDS011;24847;48.218;16.414;2023-04-28T03:20:11;4.03;;;3.00;;
39102;SDS011;24847;48.218;16.414;2023-04-28T03:25:15;3.45;;;3.15;;
39102;SDS011;24847;48.218;16.414;2023-04-28T03:30:18;5.03;;;3.05;;
39102;SDS011;24847;48.218;16.414;2023-04-28T03:35:20;6.63;;;4.93;;
39102;SDS011;24847;48.218;16.414;2023-04-28T03:40:23;8.68;;;4.47;;
39102;SDS011;24847;48.218;16.414;2023-04-28T03:45:29;4.15;;;3.58;;
39102;SDS011;24847;48.218;16.414;2023-04-28T03:50:32;4.95;;;3.72;;
39102;SDS011;24847;48.218;16.414;2023-04-28T03:55:36;4.43;;;3.55;;
39102;SDS011;24847;48.218;16.414;2023-04-28T04:00:38;4.20;;;3.55;;
39102;SDS011;24847;48.218;16.414;2023-04-28T04:05:40;5.20;;;3.13;;
39102;SDS011;24847;48.218;16.414;2023-04-28T04:10:43;4.05;;;3.42;;
39102;SDS011;24847;48.218;16.414;2023-04-28T04:15:46;4.60;;;3.35;;
39102;SDS011;24847;48.218;16.414;2023-04-28T04:20:49;5.32;;;3.25;;
39102;SDS011;24847;48.218;16.414;2023-04-28T04:25:54;4.85;;;3.60;;
39102;SDS011;24847;48.218;16.414;2023-04-28T04:30:56;5.47;;;3.85;;
39102;SDS011;24847;48.218;16.414;2023-04-28T04:35:59;4.63;;;3.25;;
39102;SDS011;24847;48.218;16.414;2023-04-28T04:41:02;4.47;;;3.63;;
39102;SDS011;24847;48.218;16.414;2023-04-28T04:46:04;4.90;;;3.55;;
39102;SDS011;24847;48.218;16.414;2023-04-28T04:51:07;4.78;;;3.40;;
39102;SDS011;24847;48.218;16.414;2023-04-28T04:56:11;5.45;;;3.85;;
39102;SDS011;24847;48.218;16.414;2023-04-28T05:01:16;6.00;;;3.40;;
39102;SDS011;24847;48.218;16.414;2023-04-28T05:06:18;4.32;;;3.63;;
39102;SDS011;24847;48.218;16.414;2023-04-28T05:11:25;5.43;;;3.55;;
39102;SDS011;24847;48.218;16.414;2023-04-28T05:16:29;6.00;;;3.53;;
39102;SDS011;24847;48.218;16.414;2023-04-28T05:21:31;4.82;;;3.80;;
39102;SDS011;24847;48.218;16.414;2023-04-28T05:26:35;5.38;;;3.92;;
39102;SDS011;24847;48.218;16.414;2023-04-28T05:31:41;4.03;;;3.40;;
39102;SDS011;24847;48.218;16.414;2023-04-28T05:36:47;7.82;;;6.05;;
39102;SDS011;24847;48.218;16.414;2023-04-28T05:41:52;7.40;;;3.97;;
39102;SDS011;24847;48.218;16.414;2023-04-28T05:46:54;6.25;;;3.92;;
39102;SDS011;24847;48.218;16.414;2023-04-28T05:51:56;5.43;;;3.88;;
39102;SDS011;24847;48.218;16.414;2023-04-28T05:57:00;4.75;;;2.97;;
39102;SDS011;24847;48.218;16.414;2023-04-28T06:02:02;4.93;;;3.15;;
39102;SDS011;24847;48.218;16.414;2023-04-28T06:07:04;3.78;;;3.10;;
39102;SDS011;24847;48.218;16.414;2023-04-28T06:12:08;6.95;;;4.65;;
39102;SDS011;24847;48.218;16.414;2023-04-28T06:17:10;8.10;;;4.15;;
39102;SDS011;24847;48.218;16.414;2023-04-28T06:22:13;5.00;;;3.53;;
39102;SDS011;24847;48.218;16.414;2023-04-28T06:27:16;4.82;;;3.35;;
39102;SDS011;24847;48.218;16.414;2023-04-28T06:32:18;4.38;;;2.80;;
39102;SDS011;24847;48.218;16.414;2023-04-28T06:37:24;4.30;;;2.88;;
39102;SDS011;24847;48.218;16.414;2023-04-28T06:42:27;3.38;;;3.03;;
39102;SDS011;24847;48.218;16.414;2023-04-28T06:47:30;4.03;;;3.22;;
39102;SDS011;24847;48.218;16.414;2023-04-28T06:52:35;4.72;;;3.25;;
39102;SDS011;24847;48.218;16.414;2023-04-28T06:57:45;5.50;;;3.33;;
39102;SDS011;24847;48.218;16.414;2023-04-28T07:02:48;4.97;;;3.35;;
39102;SDS011;24847;48.218;16.414;2023-04-28T07:07:51;6.53;;;3.08;;
39102;SDS011;24847;48.218;16.414;2023-04-28T07:12:55;4.03;;;2.97;;
39102;SDS011;24847;48.218;16.414;2023-04-28T07:18:03;4.07;;;2.70;;
39102;SDS011;24847;48.218;16.414;2023-04-28T07:23:06;3.75;;;3.15;;
39102;SDS011;24847;48.218;16.414;2023-04-28T07:28:10;5.13;;;2.92;;
39102;SDS011;24847;48.218;16.414;2023-04-28T07:33:13;5.43;;;2.78;;
39102;SDS011;24847;48.218;16.414;2023-04-28T07:38:15;4.25;;;2.67;;
39102;SDS011;24847;48.218;16.414;2023-04-28T07:43:20;6.90;;;3.35;;
39102;SDS011;24847;48.218;16.414;2023-04-28T07:48:23;2.95;;;2.58;;
39102;SDS011;24847;48.218;16.414;2023-04-28T07:53:27;5.60;;;3.03;;
39102;SDS011;24847;48.218;16.414;2023-04-28T07:58:31;3.47;;;3.00;;
39102;SDS011;24847;48.218;16.414;2023-04-28T08:03:33;3.03;;;2.50;;
39102;SDS011;24847;48.218;16.414;2023-04-28T08:08:35;4.53;;;2.60;;
39102;SDS011;24847;48.218;16.414;2023-04-28T08:13:40;3.50;;;2.55;;
39102;SDS011;24847;48.218;16.414;2023-04-28T08:18:45;6.57;;;2.20;;
39102;SDS011;24847;48.218;16.414;2023-04-28T08:23:47;2.97;;;2.13;;
39102;SDS011;24847;48.218;16.414;2023-04-28T08:28:51;4.47;;;2.15;;
39102;SDS011;24847;48.218;16.414;2023-04-28T08:33:55;3.47;;;2.05;;
39102;SDS011;24847;48.218;16.414;2023-04-28T08:38:59;2.30;;;1.77;;
39102;SDS011;24847;48.218;16.414;2023-04-28T08:44:08;2.47;;;2.03;;
39102;SDS011;24847;48.218;16.414;2023-04-28T08:49:13;2.85;;;1.67;;
39102;SDS011;24847;48.218;16.414;2023-04-28T08:54:17;6.28;;;1.50;;
39102;SDS011;24847;48.218;16.414;2023-04-28T08:59:26;2.38;;;2.00;;
39102;SDS011;24847;48.218;16.414;2023-04-28T09:04:28;3.70;;;1.73;;
39102;SDS011;24847;48.218;16.414;2023-04-28T09:09:34;2.00;;;1.55;;
39102;SDS011;24847;48.218;16.414;2023-04-28T09:14:37;2.92;;;1.52;;
39102;SDS011;24847;48.218;16.414;2023-04-28T09:19:40;2.67;;;1.88;;
39102;SDS011;24847;48.218;16.414;2023-04-28T09:24:42;3.20;;;1.80;;
39102;SDS011;24847;48.218;16.414;2023-04-28T09:29:52;4.40;;;1.73;;
39102;SDS011;24847;48.218;16.414;2023-04-28T09:34:57;2.53;;;1.83;;
39102;SDS011;24847;48.218;16.414;2023-04-28T09:40:02;3.10;;;1.83;;
39102;SDS011;24847;48.218;16.414;2023-04-28T09:45:13;3.88;;;2.05;;
39102;SDS011;24847;48.218;16.414;2023-04-28T09:50:17;4.88;;;1.98;;
39102;SDS011;24847;48.218;16.414;2023-04-28T09:55:19;4.50;;;2.00;;
39102;SDS011;24847;48.218;16.414;2023-04-28T10:00:23;2.20;;;1.83;;
39102;SDS011;24847;48.218;16.414;2023-04-28T10:05:28;2.20;;;1.90;;
39102;SDS011;24847;48.218;16.414;2023-04-28T10:10:34;3.58;;;1.90;;
39102;SDS011;24847;48.218;16.414;2023-04-28T10:15:39;3.50;;;1.83;;
39102;SDS011;24847;48.218;16.414;2023-04-28T10:20:43;6.32;;;1.40;;
39102;SDS011;24847;48.218;16.414;2023-04-28T10:25:51;2.58;;;1.65;;
39102;SDS011;24847;48.218;16.414;2023-04-28T10:41:49;4.10;;;1.75;;
39102;SDS011;24847;48.218;16.414;2023-04-28T10:47:02;4.57;;;1.55;;
39102;SDS011;24847;48.218;16.414;2023-04-28T10:52:18;3.92;;;1.50;;
39102;SDS011;24847;48.218;16.414;2023-04-28T11:03:39;2.22;;;1.45;;
39102;SDS011;24847;48.218;16.414;2023-04-28T11:08:55;3.55;;;1.50;;
39102;SDS011;24847;48.218;16.414;2023-04-28T11:19:35;2.75;;;1.40;;
39102;SDS011;24847;48.218;16.414;2023-04-28T11:24:38;3.17;;;1.40;;
39102;SDS011;24847;48.218;16.414;2023-04-28T11:29:46;4.45;;;1.40;;
39102;SDS011;24847;48.218;16.414;2023-04-28T11:34:51;2.38;;;1.45;;
39102;SDS011;24847;48.218;16.414;2023-04-28T11:40:08;2.53;;;1.65;;
39102;SDS011;24847;48.218;16.414;2023-04-28T11:45:16;2.47;;;1.50;;
39102;SDS011;24847;48.218;16.414;2023-04-28T11:55:41;4.25;;;2.13;;
39102;SDS011;24847;48.218;16.414;2023-04-28T12:01:05;3.00;;;1.60;;
39102;SDS011;24847;48.218;16.414;2023-04-28T12:06:09;2.38;;;1.40;;
39102;SDS011;24847;48.218;16.414;2023-04-28T12:11:12;5.07;;;1.70;;
39102;SDS011;24847;48.218;16.414;2023-04-28T12:16:35;2.92;;;1.50;;
39102;SDS011;24847;48.218;16.414;2023-04-28T12:21:56;1.58;;;1.48;;
39102;SDS011;24847;48.218;16.414;2023-04-28T12:27:13;2.55;;;1.20;;
39102;SDS011;24847;48.218;16.414;2023-04-28T12:32:17;3.00;;;1.48;;
39102;SDS011;24847;48.218;16.414;2023-04-28T12:37:22;1.98;;;1.40;;
39102;SDS011;24847;48.218;16.414;2023-04-28T12:42:27;3.25;;;1.85;;
39102;SDS011;24847;48.218;16.414;2023-04-28T12:47:29;5.30;;;1.77;;
39102;SDS011;24847;48.218;16.414;2023-04-28T12:52:33;3.15;;;1.60;;
39102;SDS011;24847;48.218;16.414;2023-04-28T12:57:36;1.77;;;1.27;;
39102;SDS011;24847;48.218;16.414;2023-04-28T13:02:42;2.28;;;1.52;;
39102;SDS011;24847;48.218;16.414;2023-04-28T13:07:49;2.00;;;1.20;;
39102;SDS011;24847;48.218;16.414;2023-04-28T13:12:51;2.15;;;1.42;;
39102;SDS011;24847;48.218;16.414;2023-04-28T13:17:54;3.60;;;1.50;;
39102;SDS011;24847;48.218;16.414;2023-04-28T13:23:00;2.10;;;1.30;;
39102;SDS011;24847;48.218;16.414;2023-04-28T13:28:05;2.17;;;1.38;;
39102;SDS011;24847;48.218;16.414;2023-04-28T13:33:08;1.92;;;1.70;;
39102;SDS011;24847;48.218;16.414;2023-04-28T13:38:12;2.53;;;1.63;;
39102;SDS011;24847;48.218;16.414;2023-04-28T13:43:14;1.92;;;1.70;;
39102;SDS011;24847;48.218;16.414;2023-04-28T13:48:17;1.67;;;1.42;;
39102;SDS011;24847;48.218;16.414;2023-04-28T13:53:21;2.10;;;1.40;;
39102;SDS011;24847;48.218;16.414;2023-04-28T13:58:23;1.77;;;1.35;;
39102;SDS011;24847;48.218;16.414;2023-04-28T14:03:25;1.85;;;1.67;;
39102;SDS011;24847;48.218;16.414;2023-04-28T14:08:29;2.70;;;1.65;;
39102;SDS011;24847;48.218;16.414;2023-04-28T14:13:32;2.72;;;1.75;;
39102;SDS011;24847;48.218;16.414;2023-04-28T14:18:34;3.42;;;1.80;;
39102;SDS011;24847;48.218;16.414;2023-04-28T14:23:37;4.43;;;3.38;;
39102;SDS011;24847;48.218;16.414;2023-04-28T14:28:44;2.70;;;1.58;;
39102;SDS011;24847;48.218;16.414;2023-04-28T14:33:47;3.00;;;1.52;;
39102;SDS011;24847;48.218;16.414;2023-04-28T14:38:50;2.45;;;1.50;;
39102;SDS011;24847;48.218;16.414;2023-04-28T14:43:58;1.83;;;1.63;;
39102;SDS011;24847;48.218;16.414;2023-04-28T14:49:00;2.85;;;1.83;;
39102;SDS011;24847;48.218;16.414;2023-04-28T14:54:07;2.40;;;1.83;;
39102;SDS011;24847;48.218;16.414;2023-04-28T14:59:09;3.03;;;2.08;;
39102;SDS011;24847;48.218;16.414;2023-04-28T15:04:12;2.10;;;1.77;;
39102;SDS011;24847;48.218;16.414;2023-04-28T15:09:15;3.65;;;1.80;;
39102;SDS011;24847;48.218;16.414;2023-04-28T15:14:18;1.80;;;1.67;;
39102;SDS011;24847;48.218;16.414;2023-04-28T15:19:25;2.85;;;2.03;;
39102;SDS011;24847;48.218;16.414;2023-04-28T15:24:29;2.22;;;1.80;;
39102;SDS011;24847;48.218;16.414;2023-04-28T15:29:31;2.00;;;1.80;;
39102;SDS011;24847;48.218;16.414;2023-04-28T15:34:34;2.42;;;2.10;;
39102;SDS011;24847;48.218;16.414;2023-04-28T15:39:38;2.83;;;2.17;;
39102;SDS011;24847;48.218;16.414;2023-04-28T15:44:40;2.42;;;1.80;;
39102;SDS011;24847;48.218;16.414;2023-04-28T15:49:42;2.78;;;2.40;;
39102;SDS011;24847;48.218;16.414;2023-04-28T15:54:46;2.17;;;1.95;;
39102;SDS011;24847;48.218;16.414;2023-04-28T15:59:48;3.00;;;2.10;;
39102;SDS011;24847;48.218;16.414;2023-04-28T16:04:50;2.70;;;2.10;;
39102;SDS011;24847;48.218;16.414;2023-04-28T16:09:59;3.58;;;2.40;;
39102;SDS011;24847;48.218;16.414;2023-04-28T16:15:05;3.13;;;2.30;;
39102;SDS011;24847;48.218;16.414;2023-04-28T16:20:10;2.97;;;2.17;;
39102;SDS011;24847;48.218;16.414;2023-04-28T16:25:18;2.40;;;2.00;;
39102;SDS011;24847;48.218;16.414;2023-04-28T16:30:20;2.72;;;2.22;;
39102;SDS011;24847;48.218;16.414;2023-04-28T16:35:25;2.83;;;2.05;;
39102;SDS011;24847;48.218;16.414;2023-04-28T16:40:29;3.17;;;2.40;;
39102;SDS011;24847;48.218;16.414;2023-04-28T16:45:37;4.13;;;3.00;;
39102;SDS011;24847;48.218;16.414;2023-04-28T16:50:41;3.20;;;2.90;;
39102;SDS011;24847;48.218;16.414;2023-04-28T16:55:45;3.80;;;2.95;;
39102;SDS011;24847;48.218;16.414;2023-04-28T17:00:47;4.53;;;3.17;;
39102;SDS011;24847;48.218;16.414;2023-04-28T17:05:49;3.60;;;3.30;;
39102;SDS011;24847;48.218;16.414;2023-04-28T17:10:55;4.38;;;3.67;;
39102;SDS011;24847;48.218;16.414;2023-04-28T17:15:57;4.22;;;3.72;;
39102;SDS011;24847;48.218;16.414;2023-04-28T17:21:00;5.18;;;3.88;;
39102;SDS011;24847;48.218;16.414;2023-04-28T17:26:06;5.03;;;3.22;;
39102;SDS011;24847;48.218;16.414;2023-04-28T17:31:08;3.67;;;3.30;;
39102;SDS011;24847;48.218;16.414;2023-04-28T17:36:10;4.20;;;3.53;;
39102;SDS011;24847;48.218;16.414;2023-04-28T17:41:14;4.57;;;3.83;;
39102;SDS011;24847;48.218;16.414;2023-04-28T17:46:21;4.47;;;3.87;;
39102;SDS011;24847;48.218;16.414;2023-04-28T17:51:24;5.40;;;3.58;;
39102;SDS011;24847;48.218;16.414;2023-04-28T17:56:28;5.97;;;5.05;;
39102;SDS011;24847;48.218;16.414;2023-04-28T18:01:31;4.55;;;3.45;;
39102;SDS011;24847;48.218;16.414;2023-04-28T18:06:34;6.78;;;4.45;;
39102;SDS011;24847;48.218;16.414;2023-04-28T18:11:38;8.18;;;4.00;;
39102;SDS011;24847;48.218;16.414;2023-04-28T18:16:42;5.03;;;3.78;;
39102;SDS011;24847;48.218;16.414;2023-04-28T18:21:45;4.22;;;3.58;;
39102;SDS011;24847;48.218;16.414;2023-04-28T18:26:48;4.97;;;4.30;;
39102;SDS011;24847;48.218;16.414;2023-04-28T18:31:52;5.80;;;3.72;;
39102;SDS011;24847;48.218;16.414;2023-04-28T18:36:56;6.65;;;4.05;;
39102;SDS011;24847;48.218;16.414;2023-04-28T18:41:59;4.47;;;4.05;;
39102;SDS011;24847;48.218;16.414;2023-04-28T18:47:07;5.43;;;4.47;;
39102;SDS011;24847;48.218;16.414;2023-04-28T18:52:10;5.22;;;4.50;;
39102;SDS011;24847;48.218;16.414;2023-04-28T18:57:16;4.85;;;3.97;;
39102;SDS011;24847;48.218;16.414;2023-04-28T19:02:21;5.00;;;4.50;;
39102;SDS011;24847;48.218;16.414;2023-04-28T19:07:25;4.72;;;4.32;;
39102;SDS011;24847;48.218;16.414;2023-04-28T19:12:30;4.78;;;4.22;;
39102;SDS011;24847;48.218;16.414;2023-04-28T19:17:35;6.55;;;4.85;;
39102;SDS011;24847;48.218;16.414;2023-04-28T19:22:40;5.80;;;4.57;;
39102;SDS011;24847;48.218;16.414;2023-04-28T19:27:46;5.53;;;5.03;;
39102;SDS011;24847;48.218;16.414;2023-04-28T19:32:49;4.93;;;4.40;;
39102;SDS011;24847;48.218;16.414;2023-04-28T19:37:57;5.65;;;4.70;;
39102;SDS011;24847;48.218;16.414;2023-04-28T19:43:05;6.25;;;5.35;;
39102;SDS011;24847;48.218;16.414;2023-04-28T19:48:08;5.38;;;4.60;;
39102;SDS011;24847;48.218;16.414;2023-04-28T19:53:18;5.90;;;4.47;;
39102;SDS011;24847;48.218;16.414;2023-04-28T19:58:22;5.38;;;4.47;;
39102;SDS011;24847;48.218;16.414;2023-04-28T20:03:25;4.05;;;3.50;;
39102;SDS011;24847;48.218;16.414;2023-04-28T20:08:29;4.63;;;4.22;;
39102;SDS011;24847;48.218;16.414;2023-04-28T20:13:33;5.13;;;4.60;;
39102;SDS011;24847;48.218;16.414;2023-04-28T20:18:36;5.50;;;5.00;;
39102;SDS011;24847;48.218;16.414;2023-04-28T20:23:40;7.47;;;6.20;;
39102;SDS011;24847;48.218;16.414;2023-04-28T20:28:45;6.60;;;5.95;;
39102;SDS011;24847;48.218;16.414;2023-04-28T20:33:55;5.78;;;5.10;;
39102;SDS011;24847;48.218;16.414;2023-04-28T20:38:58;6.28;;;5.70;;
39102;SDS011;24847;48.218;16.414;2023-04-28T20:44:01;5.32;;;4.72;;
39102;SDS011;24847;48.218;16.414;2023-04-28T20:49:10;5.38;;;4.88;;
39102;SDS011;24847;48.218;16.414;2023-04-28T20:54:14;6.22;;;4.78;;
39102;SDS011;24847;48.218;16.414;2023-04-28T20:59:18;5.97;;;5.38;;
39102;SDS011;24847;48.218;16.414;2023-04-28T21:04:20;5.63;;;4.70;;
39102;SDS011;24847;48.218;16.414;2023-04-28T21:09:24;5.57;;;4.93;;
39102;SDS011;24847;48.218;16.414;2023-04-28T21:14:34;5.10;;;4.63;;
39102;SDS011;24847;48.218;16.414;2023-04-28T21:19:36;6.20;;;5.53;;
39102;SDS011;24847;48.218;16.414;2023-04-28T21:24:38;5.78;;;5.13;;
39102;SDS011;24847;48.218;16.414;2023-04-28T21:29:42;5.82;;;5.13;;
39102;SDS011;24847;48.218;16.414;2023-04-28T21:34:45;5.43;;;4.93;;
39102;SDS011;24847;48.218;16.414;2023-04-28T21:39:51;5.32;;;4.82;;
39102;SDS011;24847;48.218;16.414;2023-04-28T21:44:57;5.57;;;5.07;;
39102;SDS011;24847;48.218;16.414;2023-04-28T21:50:03;6.13;;;5.53;;
39102;SDS011;24847;48.218;16.414;2023-04-28T21:55:08;6.68;;;5.28;;
39102;SDS011;24847;48.218;16.414;2023-04-28T22:00:12;6.70;;;6.03;;
39102;SDS011;24847;48.218;16.414;2023-04-28T22:05:15;6.90;;;6.20;;
39102;SDS011;24847;48.218;16.414;2023-04-28T22:10:18;6.95;;;6.25;;
39102;SDS011;24847;48.218;16.414;2023-04-28T22:15:23;7.30;;;6.35;;
39102;SDS011;24847;48.218;16.414;2023-04-28T22:20:25;10.50;;;7.43;;
39102;SDS011;24847;48.218;16.414;2023-04-28T22:25:30;8.15;;;7.28;;
39102;SDS011;24847;48.218;16.414;2023-04-28T22:30:33;16.52;;;14.82;;
39102;SDS011;24847;48.218;16.414;2023-04-28T22:35:38;11.32;;;10.07;;
39102;SDS011;24847;48.218;16.414;2023-04-28T22:40:46;9.75;;;8.82;;
39102;SDS011;24847;48.218;16.414;2023-04-28T22:45:50;8.30;;;7.50;;
39102;SDS011;24847;48.218;16.414;2023-04-28T22:50:52;9.57;;;7.97;;
39102;SDS011;24847;48.218;16.414;2023-04-28T22:56:04;8.23;;;7.43;;
39102;SDS011;24847;48.218;16.414;2023-04-28T23:01:08;6.78;;;6.18;;
39102;SDS011;24847;48.218;16.414;2023-04-28T23:06:16;7.22;;;6.47;;
39102;SDS011;24847;48.218;16.414;2023-04-28T23:11:18;8.60;;;7.45;;
39102;SDS011;24847;48.218;16.414;2023-04-28T23:16:22;9.60;;;8.35;;
39102;SDS011;24847;48.218;16.414;2023-04-28T23:21:25;9.70;;;8.70;;
39102;SDS011;24847;48.218;16.414;2023-04-28T23:26:28;10.30;;;9.30;;
39102;SDS011;24847;48.218;16.414;2023-04-28T23:31:37;10.45;;;9.20;;
39102;SDS011;24847;48.218;16.414;2023-04-28T23:36:41;11.65;;;10.50;;
39102;SDS011;24847;48.218;16.414;2023-04-28T23:41:44;10.23;;;9.23;;
39102;SDS011;24847;48.218;16.414;2023-04-28T23:46:52;9.90;;;8.23;;
39102;SDS011;24847;48.218;16.414;2023-04-28T23:51:57;8.13;;;7.32;;
39102;SDS011;24847;48.218;16.414;2023-04-28T23:56:59;10.27;;;8.52;;
